Poplar Plains, Kentucky
Current Conditions -  °F | °C
As of 1:35 AM on Monday 26 Jan 2015 (Local Time) from KFGX Reporting Station
Moderate Fog Moderate Fog  
Wind Chill: 31°   Ceiling: 200
Heat Index: 36°   Visibility: 0.5mi
Dew Point: 36°   Wind: 7mph
Humidity: 100%   Direction: 20°NNE
Pressure: 29.65"   Gusts: NA
Location:  38.436°N, 83.6931°W
Report Text: KFGX 260635Z AUTO 02006KT 1/2SM FG OVC002 02/02 A2965 RMK AO2 T00230023
Loading
Personal Weather Stations






























Interactive Weather Map New forecast layout! Learn more

10-Day Weather Forecast

Advertisements
Track Severe Weather on mobile